Grand Marais, Minnesota
Current Conditions -  °F | °C
As of 7:33 PM on Friday 19 Dec 2014 (Local Time) from KCKC Reporting Station
Haze Haze  
Wind Chill: 15°   Ceiling: 200
Heat Index: 21°   Visibility: 0.75mi
Dew Point: 18°   Wind: 5mph
Humidity: 86%   Direction: 170°S
Pressure: 30.16"   Gusts: NA
Location:  47.75°N, 90.33°W
Report Text: KCKC 200133Z AUTO 17004KT 3/4SM BR OVC002 M06/M08 A3016 RMK AO2 VIS 1/2V2 1/2
Loading
Personal Weather Stations






























Interactive Weather Map New forecast layout! Learn more

10-Day Weather Forecast

Advertisements
Track Severe Weather on mobile